sensor_id;sensor_type;location;lat;lon;timestamp;P1;durP1;ratioP1;P2;durP2;ratioP2
39792;SDS011;26080;42.264;24.536;2024-01-15T00:01:55;6.00;;;4.50;;
39792;SDS011;26080;42.264;24.536;2024-01-15T00:04:20;6.93;;;5.20;;
39792;SDS011;26080;42.264;24.536;2024-01-15T00:06:46;13.13;;;5.63;;
39792;SDS011;26080;42.264;24.536;2024-01-15T00:09:11;6.23;;;4.07;;
39792;SDS011;26080;42.264;24.536;2024-01-15T00:11:36;6.70;;;4.60;;
39792;SDS011;26080;42.264;24.536;2024-01-15T00:14:02;11.90;;;6.80;;
39792;SDS011;26080;42.264;24.536;2024-01-15T00:16:28;8.97;;;5.70;;
39792;SDS011;26080;42.264;24.536;2024-01-15T00:18:53;8.60;;;4.97;;
39792;SDS011;26080;42.264;24.536;2024-01-15T00:21:19;7.77;;;5.23;;
39792;SDS011;26080;42.264;24.536;2024-01-15T00:23:44;12.40;;;4.37;;
39792;SDS011;26080;42.264;24.536;2024-01-15T00:26:10;12.67;;;4.17;;
39792;SDS011;26080;42.264;24.536;2024-01-15T00:28:37;7.07;;;4.03;;
39792;SDS011;26080;42.264;24.536;2024-01-15T00:31:03;8.37;;;4.17;;
39792;SDS011;26080;42.264;24.536;2024-01-15T00:33:30;6.87;;;3.73;;
39792;SDS011;26080;42.264;24.536;2024-01-15T00:35:55;9.83;;;5.57;;
39792;SDS011;26080;42.264;24.536;2024-01-15T00:38:21;18.07;;;4.37;;
39792;SDS011;26080;42.264;24.536;2024-01-15T00:40:46;14.57;;;6.93;;
39792;SDS011;26080;42.264;24.536;2024-01-15T00:43:11;15.60;;;5.83;;
39792;SDS011;26080;42.264;24.536;2024-01-15T00:45:37;7.97;;;5.03;;
39792;SDS011;26080;42.264;24.536;2024-01-15T00:48:02;13.47;;;6.37;;
39792;SDS011;26080;42.264;24.536;2024-01-15T00:50:28;21.47;;;9.60;;
39792;SDS011;26080;42.264;24.536;2024-01-15T00:52:54;12.87;;;6.93;;
39792;SDS011;26080;42.264;24.536;2024-01-15T00:55:19;8.20;;;4.03;;
39792;SDS011;26080;42.264;24.536;2024-01-15T00:57:45;5.97;;;3.63;;
39792;SDS011;26080;42.264;24.536;2024-01-15T01:00:10;5.70;;;3.87;;
39792;SDS011;26080;42.264;24.536;2024-01-15T01:02:36;9.20;;;4.87;;
39792;SDS011;26080;42.264;24.536;2024-01-15T01:05:02;5.20;;;3.03;;
39792;SDS011;26080;42.264;24.536;2024-01-15T01:07:28;4.13;;;3.80;;
39792;SDS011;26080;42.264;24.536;2024-01-15T01:09:54;10.73;;;5.13;;
39792;SDS011;26080;42.264;24.536;2024-01-15T01:12:20;7.50;;;3.50;;
39792;SDS011;26080;42.264;24.536;2024-01-15T01:14:45;6.47;;;3.70;;
39792;SDS011;26080;42.264;24.536;2024-01-15T01:17:11;8.87;;;4.20;;
39792;SDS011;26080;42.264;24.536;2024-01-15T01:19:36;8.43;;;5.30;;
39792;SDS011;26080;42.264;24.536;2024-01-15T01:22:03;9.97;;;5.20;;
39792;SDS011;26080;42.264;24.536;2024-01-15T01:24:28;7.40;;;3.03;;
39792;SDS011;26080;42.264;24.536;2024-01-15T01:26:53;14.87;;;4.13;;
39792;SDS011;26080;42.264;24.536;2024-01-15T01:29:19;12.40;;;6.70;;
39792;SDS011;26080;42.264;24.536;2024-01-15T01:31:44;13.10;;;5.27;;
39792;SDS011;26080;42.264;24.536;2024-01-15T01:34:10;6.33;;;4.93;;
39792;SDS011;26080;42.264;24.536;2024-01-15T01:36:39;6.53;;;4.83;;
39792;SDS011;26080;42.264;24.536;2024-01-15T01:39:04;16.60;;;5.77;;
39792;SDS011;26080;42.264;24.536;2024-01-15T01:41:30;10.53;;;6.93;;
39792;SDS011;26080;42.264;24.536;2024-01-15T01:43:55;9.23;;;5.77;;
39792;SDS011;26080;42.264;24.536;2024-01-15T01:46:22;8.10;;;5.23;;
39792;SDS011;26080;42.264;24.536;2024-01-15T01:48:48;10.10;;;6.83;;
39792;SDS011;26080;42.264;24.536;2024-01-15T01:51:14;12.30;;;6.90;;
39792;SDS011;26080;42.264;24.536;2024-01-15T01:53:40;12.43;;;5.40;;
39792;SDS011;26080;42.264;24.536;2024-01-15T01:56:06;16.77;;;5.43;;
39792;SDS011;26080;42.264;24.536;2024-01-15T01:58:32;24.43;;;7.07;;
39792;SDS011;26080;42.264;24.536;2024-01-15T02:00:59;25.77;;;5.43;;
39792;SDS011;26080;42.264;24.536;2024-01-15T02:03:25;8.53;;;5.83;;
39792;SDS011;26080;42.264;24.536;2024-01-15T02:05:55;10.93;;;5.63;;
39792;SDS011;26080;42.264;24.536;2024-01-15T02:08:21;6.53;;;5.10;;
39792;SDS011;26080;42.264;24.536;2024-01-15T02:10:47;13.40;;;4.83;;
39792;SDS011;26080;42.264;24.536;2024-01-15T02:13:12;6.27;;;5.00;;
39792;SDS011;26080;42.264;24.536;2024-01-15T02:15:38;7.83;;;5.67;;
39792;SDS011;26080;42.264;24.536;2024-01-15T02:18:04;12.80;;;5.90;;
39792;SDS011;26080;42.264;24.536;2024-01-15T02:20:32;13.77;;;6.57;;
39792;SDS011;26080;42.264;24.536;2024-01-15T02:23:13;6.70;;;4.80;;
39792;SDS011;26080;42.264;24.536;2024-01-15T02:25:41;10.10;;;5.93;;
39792;SDS011;26080;42.264;24.536;2024-01-15T02:28:11;6.93;;;3.80;;
39792;SDS011;26080;42.264;24.536;2024-01-15T02:30:39;7.77;;;3.63;;
39792;SDS011;26080;42.264;24.536;2024-01-15T02:33:06;6.73;;;3.97;;
39792;SDS011;26080;42.264;24.536;2024-01-15T02:35:35;8.00;;;4.33;;
39792;SDS011;26080;42.264;24.536;2024-01-15T02:38:04;13.67;;;6.90;;
39792;SDS011;26080;42.264;24.536;2024-01-15T02:40:31;6.73;;;3.20;;
39792;SDS011;26080;42.264;24.536;2024-01-15T02:42:56;8.00;;;5.53;;
39792;SDS011;26080;42.264;24.536;2024-01-15T02:45:22;9.43;;;6.20;;
39792;SDS011;26080;42.264;24.536;2024-01-15T02:47:48;6.10;;;3.70;;
39792;SDS011;26080;42.264;24.536;2024-01-15T02:50:13;9.20;;;4.90;;
39792;SDS011;26080;42.264;24.536;2024-01-15T02:52:39;5.03;;;3.63;;
39792;SDS011;26080;42.264;24.536;2024-01-15T02:55:04;12.97;;;4.97;;
39792;SDS011;26080;42.264;24.536;2024-01-15T02:57:30;8.30;;;5.27;;
39792;SDS011;26080;42.264;24.536;2024-01-15T02:59:56;7.93;;;3.23;;
39792;SDS011;26080;42.264;24.536;2024-01-15T03:02:21;6.07;;;4.30;;
39792;SDS011;26080;42.264;24.536;2024-01-15T03:04:47;10.20;;;5.20;;
39792;SDS011;26080;42.264;24.536;2024-01-15T03:07:12;9.63;;;4.30;;
39792;SDS011;26080;42.264;24.536;2024-01-15T03:09:38;9.57;;;4.00;;
39792;SDS011;26080;42.264;24.536;2024-01-15T03:12:03;5.27;;;3.30;;
39792;SDS011;26080;42.264;24.536;2024-01-15T03:14:29;7.07;;;3.70;;
39792;SDS011;26080;42.264;24.536;2024-01-15T03:16:55;4.70;;;3.43;;
39792;SDS011;26080;42.264;24.536;2024-01-15T03:19:20;4.43;;;2.47;;
39792;SDS011;26080;42.264;24.536;2024-01-15T03:21:46;5.33;;;2.70;;
39792;SDS011;26080;42.264;24.536;2024-01-15T03:24:11;7.93;;;4.07;;
39792;SDS011;26080;42.264;24.536;2024-01-15T03:26:37;8.07;;;3.00;;
39792;SDS011;26080;42.264;24.536;2024-01-15T03:29:02;7.07;;;3.80;;
39792;SDS011;26080;42.264;24.536;2024-01-15T03:31:28;7.73;;;3.20;;
39792;SDS011;26080;42.264;24.536;2024-01-15T03:33:53;5.17;;;2.27;;
39792;SDS011;26080;42.264;24.536;2024-01-15T03:36:19;5.40;;;3.70;;
39792;SDS011;26080;42.264;24.536;2024-01-15T03:38:44;5.70;;;3.07;;
39792;SDS011;26080;42.264;24.536;2024-01-15T03:41:10;4.10;;;3.43;;
39792;SDS011;26080;42.264;24.536;2024-01-15T03:43:35;7.43;;;5.13;;
39792;SDS011;26080;42.264;24.536;2024-01-15T03:46:01;5.97;;;4.27;;
39792;SDS011;26080;42.264;24.536;2024-01-15T03:48:27;15.30;;;7.93;;
39792;SDS011;26080;42.264;24.536;2024-01-15T03:50:52;11.40;;;5.17;;
39792;SDS011;26080;42.264;24.536;2024-01-15T03:53:18;10.97;;;5.83;;
39792;SDS011;26080;42.264;24.536;2024-01-15T03:55:43;10.10;;;4.73;;
39792;SDS011;26080;42.264;24.536;2024-01-15T03:58:09;9.03;;;6.17;;
39792;SDS011;26080;42.264;24.536;2024-01-15T04:00:34;9.93;;;6.50;;
39792;SDS011;26080;42.264;24.536;2024-01-15T04:02:59;6.33;;;3.27;;
39792;SDS011;26080;42.264;24.536;2024-01-15T04:05:25;15.07;;;5.87;;
39792;SDS011;26080;42.264;24.536;2024-01-15T04:07:50;8.67;;;5.33;;
39792;SDS011;26080;42.264;24.536;2024-01-15T04:10:16;12.63;;;7.23;;
39792;SDS011;26080;42.264;24.536;2024-01-15T04:12:41;4.43;;;3.30;;
39792;SDS011;26080;42.264;24.536;2024-01-15T04:15:07;5.90;;;5.20;;
39792;SDS011;26080;42.264;24.536;2024-01-15T04:17:32;16.30;;;3.57;;
39792;SDS011;26080;42.264;24.536;2024-01-15T04:19:59;5.37;;;4.23;;
39792;SDS011;26080;42.264;24.536;2024-01-15T04:22:24;10.73;;;4.73;;
39792;SDS011;26080;42.264;24.536;2024-01-15T04:24:50;20.27;;;5.17;;
39792;SDS011;26080;42.264;24.536;2024-01-15T04:27:15;5.23;;;3.67;;
39792;SDS011;26080;42.264;24.536;2024-01-15T04:29:41;12.63;;;5.70;;
39792;SDS011;26080;42.264;24.536;2024-01-15T04:32:06;6.20;;;4.23;;
39792;SDS011;26080;42.264;24.536;2024-01-15T04:34:32;11.40;;;3.63;;
39792;SDS011;26080;42.264;24.536;2024-01-15T04:36:57;14.03;;;5.60;;
39792;SDS011;26080;42.264;24.536;2024-01-15T04:39:22;16.53;;;7.10;;
39792;SDS011;26080;42.264;24.536;2024-01-15T04:41:48;11.30;;;6.03;;
39792;SDS011;26080;42.264;24.536;2024-01-15T04:44:14;5.13;;;4.67;;
39792;SDS011;26080;42.264;24.536;2024-01-15T04:46:40;8.07;;;5.47;;
39792;SDS011;26080;42.264;24.536;2024-01-15T04:49:05;7.23;;;6.00;;
39792;SDS011;26080;42.264;24.536;2024-01-15T04:51:31;17.47;;;7.20;;
39792;SDS011;26080;42.264;24.536;2024-01-15T04:53:56;8.90;;;6.67;;
39792;SDS011;26080;42.264;24.536;2024-01-15T04:56:21;10.70;;;8.30;;
39792;SDS011;26080;42.264;24.536;2024-01-15T04:58:47;11.27;;;7.83;;
39792;SDS011;26080;42.264;24.536;2024-01-15T05:01:13;24.80;;;8.90;;
39792;SDS011;26080;42.264;24.536;2024-01-15T05:03:41;8.73;;;6.10;;
39792;SDS011;26080;42.264;24.536;2024-01-15T05:06:06;17.50;;;9.10;;
39792;SDS011;26080;42.264;24.536;2024-01-15T05:08:32;13.60;;;6.23;;
39792;SDS011;26080;42.264;24.536;2024-01-15T05:10:57;16.03;;;9.80;;
39792;SDS011;26080;42.264;24.536;2024-01-15T05:13:23;19.23;;;10.77;;
39792;SDS011;26080;42.264;24.536;2024-01-15T05:15:48;7.87;;;5.63;;
39792;SDS011;26080;42.264;24.536;2024-01-15T05:18:13;26.37;;;11.53;;
39792;SDS011;26080;42.264;24.536;2024-01-15T05:20:42;9.63;;;6.93;;
39792;SDS011;26080;42.264;24.536;2024-01-15T05:23:07;19.67;;;10.27;;
39792;SDS011;26080;42.264;24.536;2024-01-15T05:25:33;38.87;;;13.50;;
39792;SDS011;26080;42.264;24.536;2024-01-15T05:27:58;30.73;;;13.67;;
39792;SDS011;26080;42.264;24.536;2024-01-15T05:30:24;23.53;;;13.57;;
39792;SDS011;26080;42.264;24.536;2024-01-15T05:32:50;26.83;;;14.00;;
39792;SDS011;26080;42.264;24.536;2024-01-15T05:35:15;26.77;;;10.53;;
39792;SDS011;26080;42.264;24.536;2024-01-15T05:37:43;9.47;;;6.37;;
39792;SDS011;26080;42.264;24.536;2024-01-15T05:40:13;11.40;;;7.30;;
39792;SDS011;26080;42.264;24.536;2024-01-15T05:42:39;23.90;;;9.73;;
39792;SDS011;26080;42.264;24.536;2024-01-15T05:45:05;12.10;;;8.07;;
39792;SDS011;26080;42.264;24.536;2024-01-15T05:47:31;77.40;;;38.87;;
39792;SDS011;26080;42.264;24.536;2024-01-15T05:49:56;34.70;;;18.77;;
39792;SDS011;26080;42.264;24.536;2024-01-15T05:52:22;32.63;;;17.07;;
39792;SDS011;26080;42.264;24.536;2024-01-15T05:54:48;34.57;;;17.23;;
39792;SDS011;26080;42.264;24.536;2024-01-15T05:57:14;19.93;;;10.97;;
39792;SDS011;26080;42.264;24.536;2024-01-15T05:59:40;22.20;;;12.43;;
39792;SDS011;26080;42.264;24.536;2024-01-15T06:02:05;38.87;;;17.07;;
39792;SDS011;26080;42.264;24.536;2024-01-15T06:04:31;35.63;;;10.57;;
39792;SDS011;26080;42.264;24.536;2024-01-15T06:06:56;24.43;;;12.77;;
39792;SDS011;26080;42.264;24.536;2024-01-15T06:09:21;32.53;;;18.90;;
39792;SDS011;26080;42.264;24.536;2024-01-15T06:11:47;47.17;;;20.73;;
39792;SDS011;26080;42.264;24.536;2024-01-15T06:14:12;18.93;;;11.57;;
39792;SDS011;26080;42.264;24.536;2024-01-15T06:16:38;24.93;;;9.37;;
39792;SDS011;26080;42.264;24.536;2024-01-15T06:19:03;22.00;;;10.53;;
39792;SDS011;26080;42.264;24.536;2024-01-15T06:21:28;57.17;;;23.03;;
39792;SDS011;26080;42.264;24.536;2024-01-15T06:23:54;37.23;;;20.30;;
39792;SDS011;26080;42.264;24.536;2024-01-15T06:26:21;21.50;;;11.00;;
39792;SDS011;26080;42.264;24.536;2024-01-15T06:28:47;48.13;;;18.07;;
39792;SDS011;26080;42.264;24.536;2024-01-15T06:31:13;63.40;;;19.57;;
39792;SDS011;26080;42.264;24.536;2024-01-15T06:33:38;69.83;;;27.13;;
39792;SDS011;26080;42.264;24.536;2024-01-15T06:36:04;62.03;;;31.63;;
39792;SDS011;26080;42.264;24.536;2024-01-15T06:38:30;38.13;;;18.67;;
39792;SDS011;26080;42.264;24.536;2024-01-15T06:40:56;48.90;;;15.97;;
39792;SDS011;26080;42.264;24.536;2024-01-15T06:43:21;39.47;;;16.17;;
39792;SDS011;26080;42.264;24.536;2024-01-15T06:45:47;31.73;;;14.77;;
39792;SDS011;26080;42.264;24.536;2024-01-15T06:48:12;24.43;;;11.77;;
39792;SDS011;26080;42.264;24.536;2024-01-15T06:50:39;35.07;;;16.47;;
39792;SDS011;26080;42.264;24.536;2024-01-15T06:53:05;53.13;;;14.67;;
39792;SDS011;26080;42.264;24.536;2024-01-15T06:55:31;34.93;;;15.20;;
39792;SDS011;26080;42.264;24.536;2024-01-15T06:57:56;31.97;;;15.13;;
39792;SDS011;26080;42.264;24.536;2024-01-15T07:00:21;41.90;;;17.43;;
39792;SDS011;26080;42.264;24.536;2024-01-15T07:02:47;37.47;;;18.43;;
39792;SDS011;26080;42.264;24.536;2024-01-15T07:05:12;25.80;;;12.07;;
39792;SDS011;26080;42.264;24.536;2024-01-15T07:07:41;18.93;;;10.63;;
39792;SDS011;26080;42.264;24.536;2024-01-15T07:10:09;47.20;;;16.03;;
39792;SDS011;26080;42.264;24.536;2024-01-15T07:12:35;36.27;;;16.03;;
39792;SDS011;26080;42.264;24.536;2024-01-15T07:15:00;14.97;;;7.37;;
39792;SDS011;26080;42.264;24.536;2024-01-15T07:17:27;13.83;;;6.93;;
39792;SDS011;26080;42.264;24.536;2024-01-15T07:20:08;11.17;;;5.43;;
39792;SDS011;26080;42.264;24.536;2024-01-15T07:22:37;13.77;;;6.97;;
39792;SDS011;26080;42.264;24.536;2024-01-15T07:25:03;50.20;;;26.00;;
39792;SDS011;26080;42.264;24.536;2024-01-15T07:27:30;29.10;;;15.37;;
39792;SDS011;26080;42.264;24.536;2024-01-15T07:29:56;15.47;;;10.97;;
39792;SDS011;26080;42.264;24.536;2024-01-15T07:32:24;17.93;;;9.97;;
39792;SDS011;26080;42.264;24.536;2024-01-15T07:34:50;7.37;;;4.43;;
39792;SDS011;26080;42.264;24.536;2024-01-15T07:37:15;8.30;;;5.73;;
39792;SDS011;26080;42.264;24.536;2024-01-15T07:39:41;10.77;;;6.03;;
39792;SDS011;26080;42.264;24.536;2024-01-15T07:42:06;8.97;;;5.77;;
39792;SDS011;26080;42.264;24.536;2024-01-15T07:44:32;15.00;;;8.23;;
39792;SDS011;26080;42.264;24.536;2024-01-15T07:46:58;12.87;;;7.37;;
39792;SDS011;26080;42.264;24.536;2024-01-15T07:49:23;15.43;;;5.67;;
39792;SDS011;26080;42.264;24.536;2024-01-15T07:51:49;15.00;;;8.30;;
39792;SDS011;26080;42.264;24.536;2024-01-15T07:54:14;19.60;;;6.93;;
39792;SDS011;26080;42.264;24.536;2024-01-15T07:59:28;24.70;;;7.77;;
39792;SDS011;26080;42.264;24.536;2024-01-15T08:01:53;11.70;;;7.00;;
39792;SDS011;26080;42.264;24.536;2024-01-15T08:04:19;14.80;;;5.40;;
39792;SDS011;26080;42.264;24.536;2024-01-15T08:06:45;9.38;;;6.50;;
39792;SDS011;26080;42.264;24.536;2024-01-15T08:09:11;12.90;;;5.77;;
39792;SDS011;26080;42.264;24.536;2024-01-15T08:11:40;16.55;;;8.35;;
39792;SDS011;26080;42.264;24.536;2024-01-15T08:14:06;26.77;;;10.93;;
39792;SDS011;26080;42.264;24.536;2024-01-15T08:16:32;26.63;;;12.70;;
39792;SDS011;26080;42.264;24.536;2024-01-15T08:18:58;33.13;;;11.50;;
39792;SDS011;26080;42.264;24.536;2024-01-15T08:21:24;31.15;;;16.40;;
39792;SDS011;26080;42.264;24.536;2024-01-15T08:23:49;20.17;;;8.88;;
39792;SDS011;26080;42.264;24.536;2024-01-15T08:26:15;14.68;;;6.57;;
39792;SDS011;26080;42.264;24.536;2024-01-15T08:28:40;17.27;;;6.90;;
39792;SDS011;26080;42.264;24.536;2024-01-15T08:31:06;29.95;;;15.73;;
39792;SDS011;26080;42.264;24.536;2024-01-15T08:33:31;20.63;;;8.50;;
39792;SDS011;26080;42.264;24.536;2024-01-15T08:35:57;11.55;;;7.18;;
39792;SDS011;26080;42.264;24.536;2024-01-15T08:38:22;17.38;;;8.20;;
39792;SDS011;26080;42.264;24.536;2024-01-15T08:40:48;16.40;;;7.43;;
39792;SDS011;26080;42.264;24.536;2024-01-15T08:43:14;12.68;;;6.15;;
39792;SDS011;26080;42.264;24.536;2024-01-15T08:45:40;16.67;;;6.07;;
39792;SDS011;26080;42.264;24.536;2024-01-15T08:48:05;19.52;;;9.45;;
39792;SDS011;26080;42.264;24.536;2024-01-15T08:50:32;22.40;;;7.15;;
39792;SDS011;26080;42.264;24.536;2024-01-15T08:52:58;12.27;;;4.78;;
39792;SDS011;26080;42.264;24.536;2024-01-15T08:55:24;12.82;;;5.35;;
39792;SDS011;26080;42.264;24.536;2024-01-15T08:57:50;13.15;;;6.63;;
39792;SDS011;26080;42.264;24.536;2024-01-15T09:00:16;7.85;;;4.35;;
39792;SDS011;26080;42.264;24.536;2024-01-15T09:02:42;47.80;;;21.55;;
39792;SDS011;26080;42.264;24.536;2024-01-15T09:05:09;32.50;;;15.32;;
39792;SDS011;26080;42.264;24.536;2024-01-15T09:07:34;84.57;;;31.02;;
39792;SDS011;26080;42.264;24.536;2024-01-15T09:10:00;45.75;;;16.08;;
39792;SDS011;26080;42.264;24.536;2024-01-15T09:12:27;13.48;;;5.70;;
39792;SDS011;26080;42.264;24.536;2024-01-15T09:14:52;10.48;;;4.97;;
39792;SDS011;26080;42.264;24.536;2024-01-15T09:17:19;17.38;;;6.28;;
39792;SDS011;26080;42.264;24.536;2024-01-15T09:19:44;15.23;;;5.72;;
39792;SDS011;26080;42.264;24.536;2024-01-15T09:22:12;9.45;;;5.95;;
39792;SDS011;26080;42.264;24.536;2024-01-15T09:24:39;17.33;;;7.72;;
39792;SDS011;26080;42.264;24.536;2024-01-15T09:27:07;16.75;;;7.55;;
39792;SDS011;26080;42.264;24.536;2024-01-15T09:29:32;13.43;;;7.55;;
39792;SDS011;26080;42.264;24.536;2024-01-15T09:31:58;9.90;;;5.22;;
39792;SDS011;26080;42.264;24.536;2024-01-15T09:34:29;14.95;;;7.20;;
39792;SDS011;26080;42.264;24.536;2024-01-15T09:36:55;9.43;;;6.07;;
39792;SDS011;26080;42.264;24.536;2024-01-15T09:39:20;8.25;;;5.82;;
39792;SDS011;26080;42.264;24.536;2024-01-15T09:41:49;9.00;;;4.82;;
39792;SDS011;26080;42.264;24.536;2024-01-15T09:44:15;12.57;;;6.05;;
39792;SDS011;26080;42.264;24.536;2024-01-15T09:46:41;8.10;;;4.47;;
39792;SDS011;26080;42.264;24.536;2024-01-15T09:49:08;8.50;;;5.28;;
39792;SDS011;26080;42.264;24.536;2024-01-15T09:51:34;14.00;;;5.90;;
39792;SDS011;26080;42.264;24.536;2024-01-15T09:54:01;17.70;;;9.95;;
39792;SDS011;26080;42.264;24.536;2024-01-15T09:56:27;19.88;;;9.02;;
39792;SDS011;26080;42.264;24.536;2024-01-15T09:58:56;17.45;;;8.32;;
39792;SDS011;26080;42.264;24.536;2024-01-15T10:01:22;9.10;;;4.65;;
39792;SDS011;26080;42.264;24.536;2024-01-15T10:03:48;12.70;;;6.28;;
39792;SDS011;26080;42.264;24.536;2024-01-15T10:06:15;19.08;;;6.68;;
39792;SDS011;26080;42.264;24.536;2024-01-15T10:08:48;13.73;;;5.65;;
39792;SDS011;26080;42.264;24.536;2024-01-15T10:11:15;7.68;;;4.07;;
39792;SDS011;26080;42.264;24.536;2024-01-15T10:13:44;18.85;;;7.95;;
39792;SDS011;26080;42.264;24.536;2024-01-15T10:16:10;16.20;;;7.63;;
39792;SDS011;26080;42.264;24.536;2024-01-15T10:18:36;22.30;;;10.75;;
39792;SDS011;26080;42.264;24.536;2024-01-15T10:21:10;40.22;;;15.98;;
39792;SDS011;26080;42.264;24.536;2024-01-15T10:23:36;20.00;;;6.85;;
39792;SDS011;26080;42.264;24.536;2024-01-15T10:26:02;11.35;;;6.05;;
39792;SDS011;26080;42.264;24.536;2024-01-15T10:28:29;10.98;;;4.93;;
39792;SDS011;26080;42.264;24.536;2024-01-15T10:30:56;10.10;;;5.25;;
39792;SDS011;26080;42.264;24.536;2024-01-15T10:33:22;11.35;;;6.00;;
39792;SDS011;26080;42.264;24.536;2024-01-15T10:35:54;9.70;;;4.80;;
39792;SDS011;26080;42.264;24.536;2024-01-15T10:38:21;15.40;;;4.95;;
39792;SDS011;26080;42.264;24.536;2024-01-15T10:40:50;8.50;;;4.47;;
39792;SDS011;26080;42.264;24.536;2024-01-15T10:43:16;12.85;;;5.32;;
39792;SDS011;26080;42.264;24.536;2024-01-15T10:45:45;8.07;;;6.05;;
39792;SDS011;26080;42.264;24.536;2024-01-15T10:48:11;22.67;;;12.07;;
39792;SDS011;26080;42.264;24.536;2024-01-15T10:50:37;14.20;;;6.43;;
39792;SDS011;26080;42.264;24.536;2024-01-15T10:53:03;11.40;;;6.32;;
39792;SDS011;26080;42.264;24.536;2024-01-15T10:55:30;23.77;;;11.65;;
39792;SDS011;26080;42.264;24.536;2024-01-15T10:57:58;8.30;;;5.07;;
39792;SDS011;26080;42.264;24.536;2024-01-15T11:00:25;16.83;;;6.50;;
39792;SDS011;26080;42.264;24.536;2024-01-15T11:02:51;9.43;;;5.05;;
39792;SDS011;26080;42.264;24.536;2024-01-15T11:05:20;10.25;;;4.38;;
39792;SDS011;26080;42.264;24.536;2024-01-15T11:07:48;10.95;;;4.32;;
39792;SDS011;26080;42.264;24.536;2024-01-15T11:13:08;11.55;;;6.25;;
39792;SDS011;26080;42.264;24.536;2024-01-15T11:15:54;13.13;;;4.53;;
39792;SDS011;26080;42.264;24.536;2024-01-15T11:18:31;8.65;;;3.20;;
39792;SDS011;26080;42.264;24.536;2024-01-15T11:23:45;13.93;;;5.13;;
39792;SDS011;26080;42.264;24.536;2024-01-15T11:28:58;7.22;;;4.43;;
39792;SDS011;26080;42.264;24.536;2024-01-15T11:34:12;18.05;;;5.28;;
39792;SDS011;26080;42.264;24.536;2024-01-15T11:41:56;7.40;;;4.38;;
39792;SDS011;26080;42.264;24.536;2024-01-15T11:44:23;11.27;;;6.85;;
39792;SDS011;26080;42.264;24.536;2024-01-15T11:47:01;11.20;;;4.97;;
39792;SDS011;26080;42.264;24.536;2024-01-15T11:52:19;13.18;;;6.80;;
39792;SDS011;26080;42.264;24.536;2024-01-15T11:57:46;12.95;;;7.15;;
39792;SDS011;26080;42.264;24.536;2024-01-15T12:00:14;9.68;;;6.78;;
39792;SDS011;26080;42.264;24.536;2024-01-15T12:02:44;9.43;;;5.10;;
39792;SDS011;26080;42.264;24.536;2024-01-15T12:05:13;5.57;;;2.70;;
39792;SDS011;26080;42.264;24.536;2024-01-15T12:07:44;8.77;;;4.38;;
39792;SDS011;26080;42.264;24.536;2024-01-15T12:10:11;6.53;;;4.78;;
39792;SDS011;26080;42.264;24.536;2024-01-15T12:15:31;8.38;;;4.93;;
39792;SDS011;26080;42.264;24.536;2024-01-15T12:18:01;6.38;;;3.47;;
39792;SDS011;26080;42.264;24.536;2024-01-15T12:20:31;6.80;;;3.72;;
39792;SDS011;26080;42.264;24.536;2024-01-15T12:22:58;12.60;;;4.70;;
39792;SDS011;26080;42.264;24.536;2024-01-15T12:25:24;9.13;;;5.28;;
39792;SDS011;26080;42.264;24.536;2024-01-15T12:27:52;12.57;;;6.55;;
39792;SDS011;26080;42.264;24.536;2024-01-15T12:30:18;10.48;;;3.80;;
39792;SDS011;26080;42.264;24.536;2024-01-15T12:32:44;7.00;;;4.55;;
39792;SDS011;26080;42.264;24.536;2024-01-15T12:35:10;13.00;;;7.05;;
39792;SDS011;26080;42.264;24.536;2024-01-15T12:37:36;12.65;;;6.72;;
39792;SDS011;26080;42.264;24.536;2024-01-15T12:40:05;11.30;;;5.03;;
39792;SDS011;26080;42.264;24.536;2024-01-15T12:42:41;15.65;;;5.13;;
39792;SDS011;26080;42.264;24.536;2024-01-15T12:45:07;9.65;;;4.90;;
39792;SDS011;26080;42.264;24.536;2024-01-15T12:47:34;13.13;;;5.00;;
39792;SDS011;26080;42.264;24.536;2024-01-15T12:50:00;8.32;;;5.90;;
39792;SDS011;26080;42.264;24.536;2024-01-15T12:52:26;14.52;;;6.32;;
39792;SDS011;26080;42.264;24.536;2024-01-15T12:54:52;10.75;;;5.63;;
39792;SDS011;26080;42.264;24.536;2024-01-15T12:57:18;17.10;;;5.53;;
39792;SDS011;26080;42.264;24.536;2024-01-15T12:59:43;16.13;;;5.57;;
39792;SDS011;26080;42.264;24.536;2024-01-15T13:02:13;16.05;;;7.57;;
39792;SDS011;26080;42.264;24.536;2024-01-15T13:04:39;14.00;;;6.85;;
39792;SDS011;26080;42.264;24.536;2024-01-15T13:07:07;35.63;;;13.50;;
39792;SDS011;26080;42.264;24.536;2024-01-15T13:09:34;23.52;;;13.13;;
39792;SDS011;26080;42.264;24.536;2024-01-15T13:12:00;15.60;;;8.43;;
39792;SDS011;26080;42.264;24.536;2024-01-15T13:14:26;9.18;;;5.70;;
39792;SDS011;26080;42.264;24.536;2024-01-15T13:16:52;9.95;;;4.60;;
39792;SDS011;26080;42.264;24.536;2024-01-15T13:19:18;14.57;;;4.85;;
39792;SDS011;26080;42.264;24.536;2024-01-15T13:21:44;10.25;;;5.60;;
39792;SDS011;26080;42.264;24.536;2024-01-15T13:24:10;14.15;;;6.95;;
39792;SDS011;26080;42.264;24.536;2024-01-15T13:26:36;17.42;;;7.63;;
39792;SDS011;26080;42.264;24.536;2024-01-15T13:29:05;14.80;;;7.32;;
39792;SDS011;26080;42.264;24.536;2024-01-15T13:31:31;13.23;;;7.45;;
39792;SDS011;26080;42.264;24.536;2024-01-15T13:33:57;14.55;;;4.95;;
39792;SDS011;26080;42.264;24.536;2024-01-15T13:36:23;23.58;;;6.93;;
39792;SDS011;26080;42.264;24.536;2024-01-15T13:38:50;15.15;;;4.68;;
39792;SDS011;26080;42.264;24.536;2024-01-15T13:41:16;11.10;;;5.55;;
39792;SDS011;26080;42.264;24.536;2024-01-15T13:43:49;9.05;;;4.18;;
39792;SDS011;26080;42.264;24.536;2024-01-15T13:46:16;13.70;;;5.43;;
39792;SDS011;26080;42.264;24.536;2024-01-15T13:48:42;9.60;;;5.55;;
39792;SDS011;26080;42.264;24.536;2024-01-15T13:51:08;10.85;;;5.82;;
39792;SDS011;26080;42.264;24.536;2024-01-15T13:53:33;7.13;;;4.70;;
39792;SDS011;26080;42.264;24.536;2024-01-15T13:55:58;11.32;;;5.55;;
39792;SDS011;26080;42.264;24.536;2024-01-15T13:58:24;14.52;;;6.43;;
39792;SDS011;26080;42.264;24.536;2024-01-15T14:00:50;10.90;;;5.68;;
39792;SDS011;26080;42.264;24.536;2024-01-15T14:03:16;8.85;;;4.55;;
39792;SDS011;26080;42.264;24.536;2024-01-15T14:05:41;9.48;;;5.53;;
39792;SDS011;26080;42.264;24.536;2024-01-15T14:08:07;13.77;;;7.03;;
39792;SDS011;26080;42.264;24.536;2024-01-15T14:10:32;8.25;;;4.72;;
39792;SDS011;26080;42.264;24.536;2024-01-15T14:12:58;7.00;;;4.60;;
39792;SDS011;26080;42.264;24.536;2024-01-15T14:15:23;11.63;;;5.95;;
39792;SDS011;26080;42.264;24.536;2024-01-15T14:17:49;8.68;;;5.85;;
39792;SDS011;26080;42.264;24.536;2024-01-15T14:20:15;10.43;;;5.07;;
39792;SDS011;26080;42.264;24.536;2024-01-15T14:22:40;22.80;;;9.48;;
39792;SDS011;26080;42.264;24.536;2024-01-15T14:25:06;14.15;;;5.75;;
39792;SDS011;26080;42.264;24.536;2024-01-15T14:27:32;14.27;;;7.40;;
39792;SDS011;26080;42.264;24.536;2024-01-15T14:29:58;9.95;;;5.70;;
39792;SDS011;26080;42.264;24.536;2024-01-15T14:32:23;12.07;;;5.20;;
39792;SDS011;26080;42.264;24.536;2024-01-15T14:34:49;25.75;;;11.73;;
39792;SDS011;26080;42.264;24.536;2024-01-15T14:37:14;18.80;;;8.65;;
39792;SDS011;26080;42.264;24.536;2024-01-15T14:39:39;21.55;;;12.27;;
39792;SDS011;26080;42.264;24.536;2024-01-15T14:42:05;28.65;;;12.02;;
39792;SDS011;26080;42.264;24.536;2024-01-15T14:44:31;43.92;;;19.25;;
39792;SDS011;26080;42.264;24.536;2024-01-15T14:46:58;25.70;;;14.35;;